sensor_id;sensor_type;location;lat;lon;timestamp;P1;durP1;ratioP1;P2;durP2;ratioP2
68225;SDS011;55045;49.410;11.030;2022-07-29T00:02:25;2.42;;;2.22;;
68225;SDS011;55045;49.410;11.030;2022-07-29T00:05:29;3.17;;;2.20;;
68225;SDS011;55045;49.410;11.030;2022-07-29T00:08:34;3.10;;;2.00;;
68225;SDS011;55045;49.410;11.030;2022-07-29T00:11:38;3.85;;;2.30;;
68225;SDS011;55045;49.410;11.030;2022-07-29T00:14:41;3.28;;;2.10;;
68225;SDS011;55045;49.410;11.030;2022-07-29T00:17:45;2.38;;;2.17;;
68225;SDS011;55045;49.410;11.030;2022-07-29T00:20:48;5.18;;;2.13;;
68225;SDS011;55045;49.410;11.030;2022-07-29T00:23:53;4.68;;;2.15;;
68225;SDS011;55045;49.410;11.030;2022-07-29T00:26:56;2.42;;;2.05;;
68225;SDS011;55045;49.410;11.030;2022-07-29T00:29:59;3.85;;;2.67;;
68225;SDS011;55045;49.410;11.030;2022-07-29T00:33:03;2.65;;;2.40;;
68225;SDS011;55045;49.410;11.030;2022-07-29T00:36:09;4.72;;;2.60;;
68225;SDS011;55045;49.410;11.030;2022-07-29T00:39:13;5.97;;;2.70;;
68225;SDS011;55045;49.410;11.030;2022-07-29T00:42:17;6.15;;;2.78;;
68225;SDS011;55045;49.410;11.030;2022-07-29T00:45:20;2.88;;;2.60;;
68225;SDS011;55045;49.410;11.030;2022-07-29T00:48:24;3.17;;;2.45;;
68225;SDS011;55045;49.410;11.030;2022-07-29T00:51:27;3.67;;;2.70;;
68225;SDS011;55045;49.410;11.030;2022-07-29T00:54:33;5.28;;;2.58;;
68225;SDS011;55045;49.410;11.030;2022-07-29T00:57:45;4.07;;;3.15;;
68225;SDS011;55045;49.410;11.030;2022-07-29T01:00:48;6.32;;;2.60;;
68225;SDS011;55045;49.410;11.030;2022-07-29T01:03:52;4.75;;;2.35;;
68225;SDS011;55045;49.410;11.030;2022-07-29T01:06:55;7.47;;;2.70;;
68225;SDS011;55045;49.410;11.030;2022-07-29T01:10:02;3.03;;;2.50;;
68225;SDS011;55045;49.410;11.030;2022-07-29T01:13:06;4.05;;;2.50;;
68225;SDS011;55045;49.410;11.030;2022-07-29T01:16:13;5.15;;;3.28;;
68225;SDS011;55045;49.410;11.030;2022-07-29T01:19:28;2.85;;;2.55;;
68225;SDS011;55045;49.410;11.030;2022-07-29T01:23:01;2.88;;;2.60;;
68225;SDS011;55045;49.410;11.030;2022-07-29T01:26:31;3.00;;;2.63;;
68225;SDS011;55045;49.410;11.030;2022-07-29T01:29:44;3.08;;;2.63;;
68225;SDS011;55045;49.410;11.030;2022-07-29T01:32:54;4.20;;;2.65;;
68225;SDS011;55045;49.410;11.030;2022-07-29T01:36:04;7.60;;;2.70;;
68225;SDS011;55045;49.410;11.030;2022-07-29T01:39:16;3.30;;;2.95;;
68225;SDS011;55045;49.410;11.030;2022-07-29T01:42:23;5.07;;;2.67;;
68225;SDS011;55045;49.410;11.030;2022-07-29T01:45:36;5.78;;;2.90;;
68225;SDS011;55045;49.410;11.030;2022-07-29T01:48:44;2.60;;;2.40;;
68225;SDS011;55045;49.410;11.030;2022-07-29T01:51:51;3.27;;;2.67;;
68225;SDS011;55045;49.410;11.030;2022-07-29T01:54:58;5.00;;;2.78;;
68225;SDS011;55045;49.410;11.030;2022-07-29T01:58:05;4.57;;;2.90;;
68225;SDS011;55045;49.410;11.030;2022-07-29T02:01:11;4.53;;;2.65;;
68225;SDS011;55045;49.410;11.030;2022-07-29T02:04:16;3.03;;;2.72;;
68225;SDS011;55045;49.410;11.030;2022-07-29T02:07:30;5.57;;;2.40;;
68225;SDS011;55045;49.410;11.030;2022-07-29T02:10:36;3.08;;;2.58;;
68225;SDS011;55045;49.410;11.030;2022-07-29T02:13:42;4.30;;;2.90;;
68225;SDS011;55045;49.410;11.030;2022-07-29T02:16:48;4.88;;;2.92;;
68225;SDS011;55045;49.410;11.030;2022-07-29T02:19:56;4.35;;;2.70;;
68225;SDS011;55045;49.410;11.030;2022-07-29T02:23:03;8.83;;;3.10;;
68225;SDS011;55045;49.410;11.030;2022-07-29T02:26:06;5.00;;;3.10;;
68225;SDS011;55045;49.410;11.030;2022-07-29T02:29:11;2.80;;;2.60;;
68225;SDS011;55045;49.410;11.030;2022-07-29T02:32:28;3.38;;;2.53;;
68225;SDS011;55045;49.410;11.030;2022-07-29T02:35:34;3.53;;;2.75;;
68225;SDS011;55045;49.410;11.030;2022-07-29T02:38:37;4.38;;;2.55;;
68225;SDS011;55045;49.410;11.030;2022-07-29T02:41:54;3.58;;;2.60;;
68225;SDS011;55045;49.410;11.030;2022-07-29T02:45:02;3.90;;;2.80;;
68225;SDS011;55045;49.410;11.030;2022-07-29T02:48:09;2.97;;;2.28;;
68225;SDS011;55045;49.410;11.030;2022-07-29T02:51:17;6.93;;;2.50;;
68225;SDS011;55045;49.410;11.030;2022-07-29T02:54:46;3.13;;;2.38;;
68225;SDS011;55045;49.410;11.030;2022-07-29T02:57:54;3.58;;;2.42;;
68225;SDS011;55045;49.410;11.030;2022-07-29T03:01:04;3.35;;;2.78;;
68225;SDS011;55045;49.410;11.030;2022-07-29T03:04:21;5.57;;;3.00;;
68225;SDS011;55045;49.410;11.030;2022-07-29T03:10:31;3.83;;;2.70;;
68225;SDS011;55045;49.410;11.030;2022-07-29T03:13:35;5.45;;;2.75;;
68225;SDS011;55045;49.410;11.030;2022-07-29T03:16:39;3.08;;;2.67;;
68225;SDS011;55045;49.410;11.030;2022-07-29T03:19:45;3.80;;;2.88;;
68225;SDS011;55045;49.410;11.030;2022-07-29T03:22:49;5.60;;;2.63;;
68225;SDS011;55045;49.410;11.030;2022-07-29T03:25:53;3.20;;;2.80;;
68225;SDS011;55045;49.410;11.030;2022-07-29T03:28:57;6.03;;;2.90;;
68225;SDS011;55045;49.410;11.030;2022-07-29T03:34:43;4.15;;;2.88;;
68225;SDS011;55045;49.410;11.030;2022-07-29T03:37:49;4.55;;;3.22;;
68225;SDS011;55045;49.410;11.030;2022-07-29T03:40:53;4.70;;;3.25;;
68225;SDS011;55045;49.410;11.030;2022-07-29T03:43:59;3.95;;;2.83;;
68225;SDS011;55045;49.410;11.030;2022-07-29T03:47:03;3.42;;;2.88;;
68225;SDS011;55045;49.410;11.030;2022-07-29T03:50:11;2.55;;;2.33;;
68225;SDS011;55045;49.410;11.030;2022-07-29T03:53:17;3.28;;;2.63;;
68225;SDS011;55045;49.410;11.030;2022-07-29T03:56:21;6.32;;;3.10;;
68225;SDS011;55045;49.410;11.030;2022-07-29T03:59:26;5.78;;;3.15;;
68225;SDS011;55045;49.410;11.030;2022-07-29T04:02:30;5.28;;;2.83;;
68225;SDS011;55045;49.410;11.030;2022-07-29T04:05:36;4.28;;;2.53;;
68225;SDS011;55045;49.410;11.030;2022-07-29T04:08:39;4.28;;;2.33;;
68225;SDS011;55045;49.410;11.030;2022-07-29T04:11:43;3.30;;;2.80;;
68225;SDS011;55045;49.410;11.030;2022-07-29T04:15:04;3.40;;;2.90;;
68225;SDS011;55045;49.410;11.030;2022-07-29T04:18:08;4.70;;;2.75;;
68225;SDS011;55045;49.410;11.030;2022-07-29T04:21:13;3.92;;;2.30;;
68225;SDS011;55045;49.410;11.030;2022-07-29T04:24:19;2.50;;;2.30;;
68225;SDS011;55045;49.410;11.030;2022-07-29T04:27:23;2.88;;;2.60;;
68225;SDS011;55045;49.410;11.030;2022-07-29T04:30:26;3.80;;;2.40;;
68225;SDS011;55045;49.410;11.030;2022-07-29T04:33:30;4.63;;;2.67;;
68225;SDS011;55045;49.410;11.030;2022-07-29T04:36:34;5.20;;;2.63;;
68225;SDS011;55045;49.410;11.030;2022-07-29T04:39:38;8.95;;;2.80;;
68225;SDS011;55045;49.410;11.030;2022-07-29T04:42:41;4.18;;;2.38;;
68225;SDS011;55045;49.410;11.030;2022-07-29T04:45:48;4.97;;;3.05;;
68225;SDS011;55045;49.410;11.030;2022-07-29T04:48:51;5.85;;;2.78;;
68225;SDS011;55045;49.410;11.030;2022-07-29T04:51:56;3.22;;;2.88;;
68225;SDS011;55045;49.410;11.030;2022-07-29T04:54:59;4.10;;;2.55;;
68225;SDS011;55045;49.410;11.030;2022-07-29T04:58:03;3.80;;;2.53;;
68225;SDS011;55045;49.410;11.030;2022-07-29T05:01:06;4.43;;;3.20;;
68225;SDS011;55045;49.410;11.030;2022-07-29T05:04:10;3.15;;;2.85;;
68225;SDS011;55045;49.410;11.030;2022-07-29T05:07:15;4.40;;;2.70;;
68225;SDS011;55045;49.410;11.030;2022-07-29T05:10:18;3.20;;;2.90;;
68225;SDS011;55045;49.410;11.030;2022-07-29T05:13:21;4.88;;;2.80;;
68225;SDS011;55045;49.410;11.030;2022-07-29T05:16:25;12.80;;;3.20;;
68225;SDS011;55045;49.410;11.030;2022-07-29T05:19:28;5.47;;;3.20;;
68225;SDS011;55045;49.410;11.030;2022-07-29T05:22:33;6.13;;;2.85;;
68225;SDS011;55045;49.410;11.030;2022-07-29T05:25:36;10.10;;;3.17;;
68225;SDS011;55045;49.410;11.030;2022-07-29T05:28:45;7.10;;;3.28;;
68225;SDS011;55045;49.410;11.030;2022-07-29T05:31:48;10.05;;;3.05;;
68225;SDS011;55045;49.410;11.030;2022-07-29T05:34:53;5.38;;;2.70;;
68225;SDS011;55045;49.410;11.030;2022-07-29T05:37:58;8.77;;;3.40;;
68225;SDS011;55045;49.410;11.030;2022-07-29T05:41:01;5.55;;;2.63;;
68225;SDS011;55045;49.410;11.030;2022-07-29T05:44:05;8.10;;;2.92;;
68225;SDS011;55045;49.410;11.030;2022-07-29T05:47:09;6.38;;;3.03;;
68225;SDS011;55045;49.410;11.030;2022-07-29T05:50:25;8.05;;;3.75;;
68225;SDS011;55045;49.410;11.030;2022-07-29T05:53:50;17.38;;;4.25;;
68225;SDS011;55045;49.410;11.030;2022-07-29T05:56:53;16.90;;;3.17;;
68225;SDS011;55045;49.410;11.030;2022-07-29T05:59:56;10.52;;;3.28;;
68225;SDS011;55045;49.410;11.030;2022-07-29T06:03:03;12.23;;;3.38;;
68225;SDS011;55045;49.410;11.030;2022-07-29T06:06:06;5.85;;;2.55;;
68225;SDS011;55045;49.410;11.030;2022-07-29T06:09:11;5.88;;;2.97;;
68225;SDS011;55045;49.410;11.030;2022-07-29T06:12:15;7.53;;;3.08;;
68225;SDS011;55045;49.410;11.030;2022-07-29T06:15:19;7.10;;;2.95;;
68225;SDS011;55045;49.410;11.030;2022-07-29T06:18:22;10.32;;;3.13;;
68225;SDS011;55045;49.410;11.030;2022-07-29T06:21:26;2.95;;;2.60;;
68225;SDS011;55045;49.410;11.030;2022-07-29T06:24:30;3.72;;;2.90;;
68225;SDS011;55045;49.410;11.030;2022-07-29T06:27:34;3.30;;;3.00;;
68225;SDS011;55045;49.410;11.030;2022-07-29T06:30:37;4.30;;;2.95;;
68225;SDS011;55045;49.410;11.030;2022-07-29T06:33:41;5.22;;;2.67;;
68225;SDS011;55045;49.410;11.030;2022-07-29T06:36:44;4.20;;;2.47;;
68225;SDS011;55045;49.410;11.030;2022-07-29T06:39:50;5.18;;;2.85;;
68225;SDS011;55045;49.410;11.030;2022-07-29T06:43:13;2.80;;;2.60;;
68225;SDS011;55045;49.410;11.030;2022-07-29T06:46:17;4.82;;;2.83;;
68225;SDS011;55045;49.410;11.030;2022-07-29T06:49:22;3.65;;;3.20;;
68225;SDS011;55045;49.410;11.030;2022-07-29T06:52:27;5.57;;;3.05;;
68225;SDS011;55045;49.410;11.030;2022-07-29T06:55:33;1.30;;;1.20;;
68225;SDS011;55045;49.410;11.030;2022-07-29T06:58:38;1.55;;;1.25;;
68225;SDS011;55045;49.410;11.030;2022-07-29T07:01:42;2.15;;;1.50;;
68225;SDS011;55045;49.410;11.030;2022-07-29T07:04:48;2.03;;;1.63;;
68225;SDS011;55045;49.410;11.030;2022-07-29T07:07:51;5.55;;;2.10;;
68225;SDS011;55045;49.410;11.030;2022-07-29T07:10:56;2.47;;;2.28;;
68225;SDS011;55045;49.410;11.030;2022-07-29T07:14:00;4.97;;;2.30;;
68225;SDS011;55045;49.410;11.030;2022-07-29T07:17:05;1.55;;;1.45;;
68225;SDS011;55045;49.410;11.030;2022-07-29T07:20:09;3.20;;;2.28;;
68225;SDS011;55045;49.410;11.030;2022-07-29T07:23:13;4.38;;;2.03;;
68225;SDS011;55045;49.410;11.030;2022-07-29T07:26:18;4.95;;;2.47;;
68225;SDS011;55045;49.410;11.030;2022-07-29T07:29:21;6.20;;;2.58;;
68225;SDS011;55045;49.410;11.030;2022-07-29T07:32:24;4.00;;;2.45;;
68225;SDS011;55045;49.410;11.030;2022-07-29T07:35:28;4.18;;;1.80;;
68225;SDS011;55045;49.410;11.030;2022-07-29T07:38:31;1.67;;;1.58;;
68225;SDS011;55045;49.410;11.030;2022-07-29T07:41:36;5.13;;;2.47;;
68225;SDS011;55045;49.410;11.030;2022-07-29T07:44:39;3.50;;;1.85;;
68225;SDS011;55045;49.410;11.030;2022-07-29T07:48:03;1.05;;;1.05;;
68225;SDS011;55045;49.410;11.030;2022-07-29T07:51:07;9.45;;;2.08;;
68225;SDS011;55045;49.410;11.030;2022-07-29T07:54:10;3.05;;;2.10;;
68225;SDS011;55045;49.410;11.030;2022-07-29T07:57:16;2.70;;;2.40;;
68225;SDS011;55045;49.410;11.030;2022-07-29T08:00:19;2.35;;;2.15;;
68225;SDS011;55045;49.410;11.030;2022-07-29T08:03:24;3.13;;;2.35;;
68225;SDS011;55045;49.410;11.030;2022-07-29T08:06:28;3.25;;;2.05;;
68225;SDS011;55045;49.410;11.030;2022-07-29T08:09:31;6.15;;;3.22;;
68225;SDS011;55045;49.410;11.030;2022-07-29T08:12:37;8.70;;;4.18;;
68225;SDS011;55045;49.410;11.030;2022-07-29T08:15:40;8.77;;;4.05;;
68225;SDS011;55045;49.410;11.030;2022-07-29T08:18:44;4.25;;;3.50;;
68225;SDS011;55045;49.410;11.030;2022-07-29T08:21:48;6.28;;;3.88;;
68225;SDS011;55045;49.410;11.030;2022-07-29T08:24:54;5.13;;;3.95;;
68225;SDS011;55045;49.410;11.030;2022-07-29T08:27:59;7.97;;;3.95;;
68225;SDS011;55045;49.410;11.030;2022-07-29T08:31:02;5.25;;;3.55;;
68225;SDS011;55045;49.410;11.030;2022-07-29T08:34:05;4.75;;;3.35;;
68225;SDS011;55045;49.410;11.030;2022-07-29T08:37:09;6.30;;;3.60;;
68225;SDS011;55045;49.410;11.030;2022-07-29T08:40:13;10.48;;;4.35;;
68225;SDS011;55045;49.410;11.030;2022-07-29T08:43:18;4.43;;;3.47;;
68225;SDS011;55045;49.410;11.030;2022-07-29T08:46:23;4.90;;;3.50;;
68225;SDS011;55045;49.410;11.030;2022-07-29T08:49:28;6.65;;;3.50;;
68225;SDS011;55045;49.410;11.030;2022-07-29T08:52:31;9.27;;;3.70;;
68225;SDS011;55045;49.410;11.030;2022-07-29T08:55:39;5.55;;;3.50;;
68225;SDS011;55045;49.410;11.030;2022-07-29T08:58:45;3.95;;;3.35;;
68225;SDS011;55045;49.410;11.030;2022-07-29T09:01:53;3.88;;;3.30;;
68225;SDS011;55045;49.410;11.030;2022-07-29T09:04:58;3.22;;;2.95;;
68225;SDS011;55045;49.410;11.030;2022-07-29T09:08:03;3.25;;;2.95;;
68225;SDS011;55045;49.410;11.030;2022-07-29T09:11:07;3.00;;;2.70;;
68225;SDS011;55045;49.410;11.030;2022-07-29T09:14:13;7.18;;;3.15;;
68225;SDS011;55045;49.410;11.030;2022-07-29T09:17:16;4.38;;;3.28;;
68225;SDS011;55045;49.410;11.030;2022-07-29T09:20:21;3.63;;;2.90;;
68225;SDS011;55045;49.410;11.030;2022-07-29T09:23:25;4.68;;;3.33;;
68225;SDS011;55045;49.410;11.030;2022-07-29T09:26:29;4.78;;;2.90;;
68225;SDS011;55045;49.410;11.030;2022-07-29T09:29:34;3.85;;;3.05;;
68225;SDS011;55045;49.410;11.030;2022-07-29T09:34:43;3.38;;;3.08;;
68225;SDS011;55045;49.410;11.030;2022-07-29T09:37:46;3.70;;;3.22;;
68225;SDS011;55045;49.410;11.030;2022-07-29T09:44:07;4.38;;;2.90;;
68225;SDS011;55045;49.410;11.030;2022-07-29T09:47:10;4.88;;;2.88;;
68225;SDS011;55045;49.410;11.030;2022-07-29T09:50:15;3.22;;;2.80;;
68225;SDS011;55045;49.410;11.030;2022-07-29T09:53:31;4.22;;;2.60;;
68225;SDS011;55045;49.410;11.030;2022-07-29T09:56:38;7.00;;;3.05;;
68225;SDS011;55045;49.410;11.030;2022-07-29T09:59:42;4.32;;;3.17;;
68225;SDS011;55045;49.410;11.030;2022-07-29T10:02:58;3.75;;;3.35;;
68225;SDS011;55045;49.410;11.030;2022-07-29T10:06:06;5.35;;;2.95;;
68225;SDS011;55045;49.410;11.030;2022-07-29T10:09:11;3.95;;;2.88;;
68225;SDS011;55045;49.410;11.030;2022-07-29T10:12:14;4.57;;;2.90;;
68225;SDS011;55045;49.410;11.030;2022-07-29T10:15:17;3.60;;;3.30;;
68225;SDS011;55045;49.410;11.030;2022-07-29T10:18:21;4.35;;;2.90;;
68225;SDS011;55045;49.410;11.030;2022-07-29T10:21:32;3.20;;;2.80;;
68225;SDS011;55045;49.410;11.030;2022-07-29T10:24:38;3.40;;;2.90;;
68225;SDS011;55045;49.410;11.030;2022-07-29T10:27:42;3.30;;;2.75;;
68225;SDS011;55045;49.410;11.030;2022-07-29T10:30:45;2.78;;;2.50;;
68225;SDS011;55045;49.410;11.030;2022-07-29T10:33:54;4.57;;;2.70;;
68225;SDS011;55045;49.410;11.030;2022-07-29T10:37:14;4.10;;;3.10;;
68225;SDS011;55045;49.410;11.030;2022-07-29T10:40:28;6.20;;;2.97;;
68225;SDS011;55045;49.410;11.030;2022-07-29T10:44:12;4.28;;;3.15;;
68225;SDS011;55045;49.410;11.030;2022-07-29T10:47:24;4.95;;;4.25;;
68225;SDS011;55045;49.410;11.030;2022-07-29T10:50:28;3.75;;;2.80;;
68225;SDS011;55045;49.410;11.030;2022-07-29T10:53:57;4.45;;;2.95;;
68225;SDS011;55045;49.410;11.030;2022-07-29T10:57:10;5.50;;;3.05;;
68225;SDS011;55045;49.410;11.030;2022-07-29T11:00:31;4.78;;;3.30;;
68225;SDS011;55045;49.410;11.030;2022-07-29T11:03:46;3.47;;;3.17;;
68225;SDS011;55045;49.410;11.030;2022-07-29T11:07:06;3.47;;;2.90;;
68225;SDS011;55045;49.410;11.030;2022-07-29T11:10:21;3.25;;;2.95;;
68225;SDS011;55045;49.410;11.030;2022-07-29T11:13:45;5.35;;;3.13;;
68225;SDS011;55045;49.410;11.030;2022-07-29T11:17:09;3.97;;;3.47;;
68225;SDS011;55045;49.410;11.030;2022-07-29T11:20:33;3.55;;;3.25;;
68225;SDS011;55045;49.410;11.030;2022-07-29T11:23:39;6.38;;;3.25;;
68225;SDS011;55045;49.410;11.030;2022-07-29T11:34:21;4.57;;;3.13;;
68225;SDS011;55045;49.410;11.030;2022-07-29T11:40:43;4.90;;;3.30;;
68225;SDS011;55045;49.410;11.030;2022-07-29T11:44:31;4.60;;;3.20;;
68225;SDS011;55045;49.410;11.030;2022-07-29T11:47:58;5.03;;;3.90;;
68225;SDS011;55045;49.410;11.030;2022-07-29T11:51:22;5.32;;;3.63;;
68225;SDS011;55045;49.410;11.030;2022-07-29T11:54:34;4.97;;;3.78;;
68225;SDS011;55045;49.410;11.030;2022-07-29T11:58:01;4.00;;;3.22;;
68225;SDS011;55045;49.410;11.030;2022-07-29T12:01:06;4.55;;;3.22;;
68225;SDS011;55045;49.410;11.030;2022-07-29T12:04:10;5.15;;;3.40;;
68225;SDS011;55045;49.410;11.030;2022-07-29T12:07:14;4.10;;;3.50;;
68225;SDS011;55045;49.410;11.030;2022-07-29T12:10:17;3.92;;;3.35;;
68225;SDS011;55045;49.410;11.030;2022-07-29T12:13:31;4.15;;;3.50;;
68225;SDS011;55045;49.410;11.030;2022-07-29T12:16:43;5.30;;;3.80;;
68225;SDS011;55045;49.410;11.030;2022-07-29T12:19:46;5.97;;;3.90;;
68225;SDS011;55045;49.410;11.030;2022-07-29T12:22:51;4.30;;;3.67;;
68225;SDS011;55045;49.410;11.030;2022-07-29T12:25:57;4.05;;;3.65;;
68225;SDS011;55045;49.410;11.030;2022-07-29T12:29:01;4.53;;;4.10;;
68225;SDS011;55045;49.410;11.030;2022-07-29T12:32:13;3.63;;;3.33;;
68225;SDS011;55045;49.410;11.030;2022-07-29T12:35:20;3.78;;;3.33;;
68225;SDS011;55045;49.410;11.030;2022-07-29T12:38:24;3.58;;;3.20;;
68225;SDS011;55045;49.410;11.030;2022-07-29T12:44:44;5.00;;;3.22;;
68225;SDS011;55045;49.410;11.030;2022-07-29T12:47:53;3.42;;;2.90;;
68225;SDS011;55045;49.410;11.030;2022-07-29T12:50:57;3.30;;;3.00;;
68225;SDS011;55045;49.410;11.030;2022-07-29T12:54:03;3.88;;;3.13;;
68225;SDS011;55045;49.410;11.030;2022-07-29T12:57:09;4.22;;;2.55;;
68225;SDS011;55045;49.410;11.030;2022-07-29T13:00:21;3.17;;;2.30;;
68225;SDS011;55045;49.410;11.030;2022-07-29T13:03:28;3.97;;;2.50;;
68225;SDS011;55045;49.410;11.030;2022-07-29T13:06:58;3.28;;;2.30;;
68225;SDS011;55045;49.410;11.030;2022-07-29T13:10:13;3.05;;;2.00;;
68225;SDS011;55045;49.410;11.030;2022-07-29T13:13:18;2.28;;;2.08;;
68225;SDS011;55045;49.410;11.030;2022-07-29T13:16:22;2.10;;;1.90;;
68225;SDS011;55045;49.410;11.030;2022-07-29T13:19:33;2.60;;;2.40;;
68225;SDS011;55045;49.410;11.030;2022-07-29T13:22:39;3.67;;;2.45;;
68225;SDS011;55045;49.410;11.030;2022-07-29T13:25:44;2.45;;;2.25;;
68225;SDS011;55045;49.410;11.030;2022-07-29T13:28:47;4.25;;;2.42;;
68225;SDS011;55045;49.410;11.030;2022-07-29T13:31:51;3.50;;;2.50;;
68225;SDS011;55045;49.410;11.030;2022-07-29T13:34:56;4.00;;;2.15;;
68225;SDS011;55045;49.410;11.030;2022-07-29T13:38:00;2.35;;;1.70;;
68225;SDS011;55045;49.410;11.030;2022-07-29T13:41:03;2.53;;;1.48;;
68225;SDS011;55045;49.410;11.030;2022-07-29T13:44:07;0.98;;;0.88;;
68225;SDS011;55045;49.410;11.030;2022-07-29T13:47:10;0.88;;;0.88;;
68225;SDS011;55045;49.410;11.030;2022-07-29T13:50:15;2.60;;;1.35;;
68225;SDS011;55045;49.410;11.030;2022-07-29T13:53:18;0.60;;;0.60;;
68225;SDS011;55045;49.410;11.030;2022-07-29T13:56:27;1.48;;;1.30;;
68225;SDS011;55045;49.410;11.030;2022-07-29T13:59:31;1.65;;;1.05;;
68225;SDS011;55045;49.410;11.030;2022-07-29T14:02:35;1.30;;;1.20;;
68225;SDS011;55045;49.410;11.030;2022-07-29T14:05:41;2.17;;;1.05;;
68225;SDS011;55045;49.410;11.030;2022-07-29T14:08:44;0.82;;;0.82;;
68225;SDS011;55045;49.410;11.030;2022-07-29T14:11:48;1.35;;;0.90;;
68225;SDS011;55045;49.410;11.030;2022-07-29T14:14:53;0.70;;;0.70;;
68225;SDS011;55045;49.410;11.030;2022-07-29T14:17:56;0.98;;;0.88;;
68225;SDS011;55045;49.410;11.030;2022-07-29T14:21:01;0.88;;;0.88;;
68225;SDS011;55045;49.410;11.030;2022-07-29T14:24:05;0.90;;;0.90;;
68225;SDS011;55045;49.410;11.030;2022-07-29T14:27:25;2.03;;;1.40;;
68225;SDS011;55045;49.410;11.030;2022-07-29T14:30:39;1.27;;;1.17;;
68225;SDS011;55045;49.410;11.030;2022-07-29T14:33:42;2.97;;;1.15;;
68225;SDS011;55045;49.410;11.030;2022-07-29T14:39:56;1.30;;;1.20;;
68225;SDS011;55045;49.410;11.030;2022-07-29T14:43:03;1.80;;;1.37;;
68225;SDS011;55045;49.410;11.030;2022-07-29T14:46:07;4.10;;;1.55;;
68225;SDS011;55045;49.410;11.030;2022-07-29T14:49:11;2.05;;;1.67;;
68225;SDS011;55045;49.410;11.030;2022-07-29T14:52:16;1.55;;;1.45;;
68225;SDS011;55045;49.410;11.030;2022-07-29T14:55:19;0.98;;;0.98;;
68225;SDS011;55045;49.410;11.030;2022-07-29T14:58:23;2.40;;;1.38;;
68225;SDS011;55045;49.410;11.030;2022-07-29T15:01:26;1.40;;;1.30;;
68225;SDS011;55045;49.410;11.030;2022-07-29T15:04:30;1.73;;;1.40;;
68225;SDS011;55045;49.410;11.030;2022-07-29T15:07:35;7.65;;;1.27;;
68225;SDS011;55045;49.410;11.030;2022-07-29T15:10:39;1.35;;;1.25;;
68225;SDS011;55045;49.410;11.030;2022-07-29T15:13:42;1.35;;;1.25;;
68225;SDS011;55045;49.410;11.030;2022-07-29T15:16:45;1.50;;;1.40;;
68225;SDS011;55045;49.410;11.030;2022-07-29T15:19:49;2.63;;;1.52;;
68225;SDS011;55045;49.410;11.030;2022-07-29T15:22:54;2.25;;;1.38;;
68225;SDS011;55045;49.410;11.030;2022-07-29T15:25:58;1.00;;;0.95;;
68225;SDS011;55045;49.410;11.030;2022-07-29T15:29:01;1.02;;;1.00;;
68225;SDS011;55045;49.410;11.030;2022-07-29T15:34:44;4.47;;;1.23;;
68225;SDS011;55045;49.410;11.030;2022-07-29T15:37:47;1.17;;;0.95;;
68225;SDS011;55045;49.410;11.030;2022-07-29T15:40:50;2.33;;;1.40;;
68225;SDS011;55045;49.410;11.030;2022-07-29T15:43:54;1.75;;;1.40;;
68225;SDS011;55045;49.410;11.030;2022-07-29T15:46:57;1.98;;;1.80;;
68225;SDS011;55045;49.410;11.030;2022-07-29T15:50:09;3.05;;;1.77;;
68225;SDS011;55045;49.410;11.030;2022-07-29T15:53:16;1.98;;;1.73;;
68225;SDS011;55045;49.410;11.030;2022-07-29T15:56:20;1.60;;;1.50;;
68225;SDS011;55045;49.410;11.030;2022-07-29T15:59:23;4.10;;;1.90;;
68225;SDS011;55045;49.410;11.030;2022-07-29T16:02:27;1.80;;;1.70;;
68225;SDS011;55045;49.410;11.030;2022-07-29T16:05:31;2.47;;;2.25;;
68225;SDS011;55045;49.410;11.030;2022-07-29T16:08:42;1.05;;;1.02;;
68225;SDS011;55045;49.410;11.030;2022-07-29T16:11:45;1.65;;;1.40;;
68225;SDS011;55045;49.410;11.030;2022-07-29T16:14:51;1.52;;;1.00;;
68225;SDS011;55045;49.410;11.030;2022-07-29T16:17:55;4.47;;;2.13;;
68225;SDS011;55045;49.410;11.030;2022-07-29T16:20:59;3.25;;;2.33;;
68225;SDS011;55045;49.410;11.030;2022-07-29T16:24:03;1.73;;;1.63;;
68225;SDS011;55045;49.410;11.030;2022-07-29T16:27:07;4.60;;;2.70;;
68225;SDS011;55045;49.410;11.030;2022-07-29T16:30:11;5.20;;;1.90;;
68225;SDS011;55045;49.410;11.030;2022-07-29T16:33:15;3.20;;;2.80;;
68225;SDS011;55045;49.410;11.030;2022-07-29T16:36:20;3.03;;;2.40;;
68225;SDS011;55045;49.410;11.030;2022-07-29T16:39:23;5.75;;;2.13;;
68225;SDS011;55045;49.410;11.030;2022-07-29T16:42:27;4.82;;;2.17;;
68225;SDS011;55045;49.410;11.030;2022-07-29T16:45:47;3.92;;;2.63;;
68225;SDS011;55045;49.410;11.030;2022-07-29T16:48:50;1.80;;;1.65;;
68225;SDS011;55045;49.410;11.030;2022-07-29T16:51:56;4.95;;;3.25;;
68225;SDS011;55045;49.410;11.030;2022-07-29T16:55:00;15.32;;;2.53;;
68225;SDS011;55045;49.410;11.030;2022-07-29T16:58:03;1.67;;;1.58;;
68225;SDS011;55045;49.410;11.030;2022-07-29T17:01:07;1.55;;;1.45;;
68225;SDS011;55045;49.410;11.030;2022-07-29T17:04:10;2.22;;;2.03;;
68225;SDS011;55045;49.410;11.030;2022-07-29T17:07:17;4.30;;;2.65;;
68225;SDS011;55045;49.410;11.030;2022-07-29T17:10:20;4.32;;;2.13;;
68225;SDS011;55045;49.410;11.030;2022-07-29T17:13:24;2.35;;;2.15;;
68225;SDS011;55045;49.410;11.030;2022-07-29T17:16:27;5.25;;;2.60;;
68225;SDS011;55045;49.410;11.030;2022-07-29T17:19:34;4.47;;;2.65;;
68225;SDS011;55045;49.410;11.030;2022-07-29T17:22:39;1.98;;;1.40;;
68225;SDS011;55045;49.410;11.030;2022-07-29T17:25:43;2.47;;;1.33;;
68225;SDS011;55045;49.410;11.030;2022-07-29T17:28:46;2.35;;;2.00;;
68225;SDS011;55045;49.410;11.030;2022-07-29T17:31:50;4.78;;;2.78;;
68225;SDS011;55045;49.410;11.030;2022-07-29T17:34:54;5.80;;;2.08;;
68225;SDS011;55045;49.410;11.030;2022-07-29T17:37:58;3.20;;;1.70;;
68225;SDS011;55045;49.410;11.030;2022-07-29T17:41:02;2.60;;;1.50;;
68225;SDS011;55045;49.410;11.030;2022-07-29T17:44:10;2.92;;;2.28;;
68225;SDS011;55045;49.410;11.030;2022-07-29T17:47:15;1.75;;;1.63;;
68225;SDS011;55045;49.410;11.030;2022-07-29T17:50:18;1.77;;;1.65;;
68225;SDS011;55045;49.410;11.030;2022-07-29T17:53:23;2.08;;;1.23;;
68225;SDS011;55045;49.410;11.030;2022-07-29T17:56:26;2.15;;;2.00;;
68225;SDS011;55045;49.410;11.030;2022-07-29T17:59:31;3.97;;;2.10;;
68225;SDS011;55045;49.410;11.030;2022-07-29T18:02:34;2.42;;;2.22;;
68225;SDS011;55045;49.410;11.030;2022-07-29T18:05:38;3.38;;;2.50;;
68225;SDS011;55045;49.410;11.030;2022-07-29T18:08:43;2.00;;;1.52;;
68225;SDS011;55045;49.410;11.030;2022-07-29T18:11:48;1.67;;;1.55;;
68225;SDS011;55045;49.410;11.030;2022-07-29T18:14:51;3.17;;;2.03;;
68225;SDS011;55045;49.410;11.030;2022-07-29T18:17:55;2.05;;;1.67;;
68225;SDS011;55045;49.410;11.030;2022-07-29T18:20:58;1.90;;;1.70;;
68225;SDS011;55045;49.410;11.030;2022-07-29T18:24:04;1.60;;;1.50;;
68225;SDS011;55045;49.410;11.030;2022-07-29T18:27:08;6.13;;;2.55;;
68225;SDS011;55045;49.410;11.030;2022-07-29T18:30:11;3.13;;;2.38;;
68225;SDS011;55045;49.410;11.030;2022-07-29T18:33:15;4.32;;;2.40;;
68225;SDS011;55045;49.410;11.030;2022-07-29T18:36:22;2.72;;;2.05;;
68225;SDS011;55045;49.410;11.030;2022-07-29T18:39:27;1.63;;;1.50;;
68225;SDS011;55045;49.410;11.030;2022-07-29T18:42:30;2.92;;;1.80;;
68225;SDS011;55045;49.410;11.030;2022-07-29T18:45:34;2.75;;;1.95;;
68225;SDS011;55045;49.410;11.030;2022-07-29T18:48:40;2.42;;;1.52;;
68225;SDS011;55045;49.410;11.030;2022-07-29T18:51:44;2.83;;;1.90;;
68225;SDS011;55045;49.410;11.030;2022-07-29T18:54:48;5.22;;;2.17;;
68225;SDS011;55045;49.410;11.030;2022-07-29T18:57:52;3.05;;;1.27;;